Historyczne dane pomiarowe

Dodano dane terminowe – wersja testowa.

Dane z okresu 1951-2019

Wersja bazy: 1.34 [2019-03-16, lista zmian], aktualizacja planowana na 2019-04-15

Dane meteo z obszaru Polski uzyskane na podstawie danych udostępnionych przez Instytut Meteorologii i Gospodarki Wodnej – Państwowy Instytut Badawczy.

 

Wybierz Datę:    

       

TemperaturaWilgotnośćWiatrCiśnienieOpadyŚniegCzas trwania zjawisk
 Stacja t tx tn tng RH VA  wxwx mslp ppp RRR   cm mm wxwxwxwxwxwxwx
1962-02-25 -6.5 -4.1-12.5--- 8.0 2.0---- 1.3-- 17---------
1962-02-26 -3.7 -2.4 -4.7--- 8.0 2.7---- 0.0-- 18---------
1962-02-27 -6.7 -4.3 -9.2--- 5.3 1.3---- 0.0-- 19---------
1962-02-28 -6.7 -4.5-13.1--- 5.3 1.3---- 0.0-- 19---------
1962-03-01 -3.9 -2.6 -6.3--- 8.0 1.0---- 0.0-- 19---------
1962-03-02 -4.8 -3.2 -7.2--- 7.7 0.3---- 0.0-- 19---------
1962-03-03 -2.8 0.5 -9.6--- 2.7 0.7---- 0.0-- 19---------
1962-03-04 2.8 4.0 -3.8--- 7.0 1.3---- 2.2-- 19---------
1962-03-05 5.8 8.4 -1.8--- 6.7 0.0---- 0.1-- 15---------
1962-03-06 2.4 8.6 -0.7--- 7.3 4.3---- 0.2------------
1962-03-07 -1.7 0.0 -2.7--- 8.0 2.7---- 3.5------------
1962-03-08 -2.3 -0.2 -5.5--- 1.3 0.7---- 0.0------------
1962-03-09 -2.4 -1.2 -4.7--- 4.7 1.7---- 0.0------------
1962-03-10 -2.1 0.4 -7.0--- 6.0 8.3---- 0.0------------
1962-03-11 2.7 6.5 -7.0--- 6.3 2.0---- 0.0------------
1962-03-12 1.1 3.0 -0.2--- 8.0 1.0---- 6.8------------
1962-03-13 -3.5 0.3 -5.0--- 7.7 6.7---- 0.0-- 5---------
1962-03-14 -7.3 -3.7 -8.7--- 5.3 2.0---- 0.0------------
1962-03-15 -6.7 -5.5 -8.9--- 8.0 1.3---- 0.2------------
1962-03-16 -6.8 -6.3 -8.3--- 8.0 14.3---- 2.9------------
1962-03-17 -5.9 -4.6 -8.4--- 8.0 5.0---- 2.0-- 30---------
1962-03-18 -5.4 -2.5 -8.3--- 2.0 4.3---- 0.0-- 28---------
1962-03-19 -4.9 -1.9 -8.3--- 4.7 0.0---- 0.0-- 25---------
1962-03-20 -6.3 -1.3 -8.6--- 2.7 0.7---- 0.0-- 25---------
1962-03-21 -7.8 -2.7-16.1--- 2.7 0.7---- 0.0-- 22---------
1962-03-22 -3.7 -2.4-10.7--- 8.0 1.7---- 2.3-- 21---------
1962-03-23 -0.9 0.0 -3.7--- 8.0 1.0---- 6.2-- 28---------
1962-03-24 -1.2 0.2 -3.0--- 8.0 1.0---- 0.0-- 28---------
1962-03-25 -7.7 -1.1-12.7--- 2.0 0.3---- 0.0-- 29---------
1962-03-26 -7.5 -2.1-19.2--- 0.0 1.3---- 0.0-- 28---------
155.1 ms

 

Źródłem pochodzenia danych jest Instytut Meteorologii i Gospodarki Wodnej – Państwowy Instytut Badawczy. Dane Instytutu Meteorologii i Gospodarki Wodnej – Państwowego Instytutu Badawczego zostały przetworzone.

Dane źródłowe można odnaleźć na stronie https://dane.imgw.pl